sensor_id;sensor_type;location;lat;lon;timestamp;P1;durP1;ratioP1;P2;durP2;ratioP2
15002;SDS011;7597;53.590;10.020;2022-11-13T00:02:06;25.67;;;17.57;;
15002;SDS011;7597;53.590;10.020;2022-11-13T00:04:32;25.57;;;18.57;;
15002;SDS011;7597;53.590;10.020;2022-11-13T00:06:59;26.43;;;18.77;;
15002;SDS011;7597;53.590;10.020;2022-11-13T00:09:26;25.33;;;18.20;;
15002;SDS011;7597;53.590;10.020;2022-11-13T00:11:52;25.50;;;17.90;;
15002;SDS011;7597;53.590;10.020;2022-11-13T00:14:19;26.23;;;18.13;;
15002;SDS011;7597;53.590;10.020;2022-11-13T00:16:46;25.20;;;18.13;;
15002;SDS011;7597;53.590;10.020;2022-11-13T00:19:12;28.30;;;19.10;;
15002;SDS011;7597;53.590;10.020;2022-11-13T00:21:39;26.17;;;18.70;;
15002;SDS011;7597;53.590;10.020;2022-11-13T00:24:06;26.90;;;18.90;;
15002;SDS011;7597;53.590;10.020;2022-11-13T00:26:33;27.93;;;20.00;;
15002;SDS011;7597;53.590;10.020;2022-11-13T00:29:00;30.03;;;19.73;;
15002;SDS011;7597;53.590;10.020;2022-11-13T00:31:27;30.27;;;19.67;;
15002;SDS011;7597;53.590;10.020;2022-11-13T00:33:54;34.43;;;22.43;;
15002;SDS011;7597;53.590;10.020;2022-11-13T00:36:21;77.93;;;45.37;;
15002;SDS011;7597;53.590;10.020;2022-11-13T00:38:47;29.90;;;21.07;;
15002;SDS011;7597;53.590;10.020;2022-11-13T00:41:13;31.67;;;22.23;;
15002;SDS011;7597;53.590;10.020;2022-11-13T00:43:40;29.23;;;20.63;;
15002;SDS011;7597;53.590;10.020;2022-11-13T00:46:07;28.40;;;19.40;;
15002;SDS011;7597;53.590;10.020;2022-11-13T00:48:33;26.37;;;19.40;;
15002;SDS011;7597;53.590;10.020;2022-11-13T00:51:00;29.43;;;20.60;;
15002;SDS011;7597;53.590;10.020;2022-11-13T00:53:27;28.93;;;19.83;;
15002;SDS011;7597;53.590;10.020;2022-11-13T00:55:53;28.23;;;18.57;;
15002;SDS011;7597;53.590;10.020;2022-11-13T00:58:20;23.27;;;17.80;;
15002;SDS011;7597;53.590;10.020;2022-11-13T01:00:47;25.70;;;16.90;;
15002;SDS011;7597;53.590;10.020;2022-11-13T01:03:14;28.13;;;19.37;;
15002;SDS011;7597;53.590;10.020;2022-11-13T01:05:41;25.60;;;18.40;;
15002;SDS011;7597;53.590;10.020;2022-11-13T01:08:07;24.30;;;18.17;;
15002;SDS011;7597;53.590;10.020;2022-11-13T01:10:33;29.20;;;18.17;;
15002;SDS011;7597;53.590;10.020;2022-11-13T01:13:00;31.00;;;19.27;;
15002;SDS011;7597;53.590;10.020;2022-11-13T01:15:26;31.13;;;19.83;;
15002;SDS011;7597;53.590;10.020;2022-11-13T01:17:53;25.63;;;18.10;;
15002;SDS011;7597;53.590;10.020;2022-11-13T01:20:20;26.33;;;18.87;;
15002;SDS011;7597;53.590;10.020;2022-11-13T01:22:46;27.00;;;19.17;;
15002;SDS011;7597;53.590;10.020;2022-11-13T01:25:13;26.53;;;18.63;;
15002;SDS011;7597;53.590;10.020;2022-11-13T01:27:40;27.70;;;18.70;;
15002;SDS011;7597;53.590;10.020;2022-11-13T01:30:07;29.17;;;18.80;;
15002;SDS011;7597;53.590;10.020;2022-11-13T01:32:34;25.20;;;17.90;;
15002;SDS011;7597;53.590;10.020;2022-11-13T01:35:00;26.67;;;17.70;;
15002;SDS011;7597;53.590;10.020;2022-11-13T01:37:27;29.20;;;17.73;;
15002;SDS011;7597;53.590;10.020;2022-11-13T01:39:54;28.23;;;18.67;;
15002;SDS011;7597;53.590;10.020;2022-11-13T01:42:20;25.27;;;17.20;;
15002;SDS011;7597;53.590;10.020;2022-11-13T01:44:51;31.67;;;18.63;;
15002;SDS011;7597;53.590;10.020;2022-11-13T01:47:17;27.83;;;17.63;;
15002;SDS011;7597;53.590;10.020;2022-11-13T01:49:43;26.13;;;18.23;;
15002;SDS011;7597;53.590;10.020;2022-11-13T01:52:12;33.10;;;19.30;;
15002;SDS011;7597;53.590;10.020;2022-11-13T01:54:41;26.87;;;18.10;;
15002;SDS011;7597;53.590;10.020;2022-11-13T01:57:09;30.87;;;18.97;;
15002;SDS011;7597;53.590;10.020;2022-11-13T01:59:37;27.77;;;19.20;;
15002;SDS011;7597;53.590;10.020;2022-11-13T02:02:04;33.93;;;20.70;;
15002;SDS011;7597;53.590;10.020;2022-11-13T02:04:32;31.03;;;19.77;;
15002;SDS011;7597;53.590;10.020;2022-11-13T02:07:00;27.17;;;20.47;;
15002;SDS011;7597;53.590;10.020;2022-11-13T02:09:29;29.57;;;19.53;;
15002;SDS011;7597;53.590;10.020;2022-11-13T02:11:54;31.37;;;19.87;;
15002;SDS011;7597;53.590;10.020;2022-11-13T02:14:21;31.47;;;20.57;;
15002;SDS011;7597;53.590;10.020;2022-11-13T02:16:48;36.60;;;21.13;;
15002;SDS011;7597;53.590;10.020;2022-11-13T02:19:16;28.90;;;19.40;;
15002;SDS011;7597;53.590;10.020;2022-11-13T02:21:49;32.00;;;20.00;;
15002;SDS011;7597;53.590;10.020;2022-11-13T02:24:18;29.33;;;19.53;;
15002;SDS011;7597;53.590;10.020;2022-11-13T02:27:02;28.23;;;19.73;;
15002;SDS011;7597;53.590;10.020;2022-11-13T02:29:26;32.20;;;21.60;;
15002;SDS011;7597;53.590;10.020;2022-11-13T02:31:53;34.47;;;22.17;;
15002;SDS011;7597;53.590;10.020;2022-11-13T02:34:20;32.33;;;21.47;;
15002;SDS011;7597;53.590;10.020;2022-11-13T02:36:48;31.43;;;20.77;;
15002;SDS011;7597;53.590;10.020;2022-11-13T02:39:14;34.43;;;21.37;;
15002;SDS011;7597;53.590;10.020;2022-11-13T02:41:40;29.77;;;20.43;;
15002;SDS011;7597;53.590;10.020;2022-11-13T02:44:08;32.30;;;20.80;;
15002;SDS011;7597;53.590;10.020;2022-11-13T02:46:35;29.87;;;20.60;;
15002;SDS011;7597;53.590;10.020;2022-11-13T02:49:02;33.70;;;20.63;;
15002;SDS011;7597;53.590;10.020;2022-11-13T02:51:29;38.83;;;22.10;;
15002;SDS011;7597;53.590;10.020;2022-11-13T02:53:55;37.87;;;22.00;;
15002;SDS011;7597;53.590;10.020;2022-11-13T02:56:22;31.87;;;20.87;;
15002;SDS011;7597;53.590;10.020;2022-11-13T02:58:48;31.27;;;20.93;;
15002;SDS011;7597;53.590;10.020;2022-11-13T03:01:15;31.97;;;20.53;;
15002;SDS011;7597;53.590;10.020;2022-11-13T03:03:42;31.97;;;21.30;;
15002;SDS011;7597;53.590;10.020;2022-11-13T03:06:08;37.60;;;21.87;;
15002;SDS011;7597;53.590;10.020;2022-11-13T03:08:35;37.10;;;22.80;;
15002;SDS011;7597;53.590;10.020;2022-11-13T03:11:05;37.40;;;22.10;;
15002;SDS011;7597;53.590;10.020;2022-11-13T03:13:31;35.93;;;22.70;;
15002;SDS011;7597;53.590;10.020;2022-11-13T03:16:04;34.70;;;22.67;;
15002;SDS011;7597;53.590;10.020;2022-11-13T03:18:39;35.83;;;23.03;;
15002;SDS011;7597;53.590;10.020;2022-11-13T03:21:07;40.73;;;24.73;;
15002;SDS011;7597;53.590;10.020;2022-11-13T03:23:32;43.83;;;25.53;;
15002;SDS011;7597;53.590;10.020;2022-11-13T03:26:02;42.27;;;25.47;;
15002;SDS011;7597;53.590;10.020;2022-11-13T03:28:27;44.73;;;25.37;;
15002;SDS011;7597;53.590;10.020;2022-11-13T03:30:54;47.63;;;27.17;;
15002;SDS011;7597;53.590;10.020;2022-11-13T03:33:20;43.83;;;26.73;;
15002;SDS011;7597;53.590;10.020;2022-11-13T03:35:47;44.43;;;26.10;;
15002;SDS011;7597;53.590;10.020;2022-11-13T03:38:14;51.43;;;27.40;;
15002;SDS011;7597;53.590;10.020;2022-11-13T03:40:41;47.20;;;27.97;;
15002;SDS011;7597;53.590;10.020;2022-11-13T03:43:08;44.70;;;27.03;;
15002;SDS011;7597;53.590;10.020;2022-11-13T03:45:34;44.53;;;25.70;;
15002;SDS011;7597;53.590;10.020;2022-11-13T03:48:02;51.93;;;27.93;;
15002;SDS011;7597;53.590;10.020;2022-11-13T03:50:29;43.73;;;26.90;;
15002;SDS011;7597;53.590;10.020;2022-11-13T03:52:55;44.20;;;25.50;;
15002;SDS011;7597;53.590;10.020;2022-11-13T03:55:22;50.13;;;26.43;;
15002;SDS011;7597;53.590;10.020;2022-11-13T03:57:49;47.10;;;26.77;;
15002;SDS011;7597;53.590;10.020;2022-11-13T04:00:16;44.57;;;26.37;;
15002;SDS011;7597;53.590;10.020;2022-11-13T04:02:43;43.53;;;26.97;;
15002;SDS011;7597;53.590;10.020;2022-11-13T04:05:09;45.23;;;27.77;;
15002;SDS011;7597;53.590;10.020;2022-11-13T04:07:36;47.93;;;26.27;;
15002;SDS011;7597;53.590;10.020;2022-11-13T04:10:03;47.67;;;26.70;;
15002;SDS011;7597;53.590;10.020;2022-11-13T04:12:30;46.17;;;26.47;;
15002;SDS011;7597;53.590;10.020;2022-11-13T04:14:56;46.67;;;26.67;;
15002;SDS011;7597;53.590;10.020;2022-11-13T04:17:24;47.97;;;27.53;;
15002;SDS011;7597;53.590;10.020;2022-11-13T04:19:53;44.10;;;25.67;;
15002;SDS011;7597;53.590;10.020;2022-11-13T04:22:19;42.60;;;25.70;;
15002;SDS011;7597;53.590;10.020;2022-11-13T04:24:46;43.17;;;25.53;;
15002;SDS011;7597;53.590;10.020;2022-11-13T04:27:12;46.47;;;27.00;;
15002;SDS011;7597;53.590;10.020;2022-11-13T04:29:39;41.43;;;25.00;;
15002;SDS011;7597;53.590;10.020;2022-11-13T04:32:06;46.87;;;25.67;;
15002;SDS011;7597;53.590;10.020;2022-11-13T04:34:32;41.27;;;25.00;;
15002;SDS011;7597;53.590;10.020;2022-11-13T04:36:59;46.13;;;26.07;;
15002;SDS011;7597;53.590;10.020;2022-11-13T04:39:26;40.30;;;25.50;;
15002;SDS011;7597;53.590;10.020;2022-11-13T04:41:53;44.60;;;26.10;;
15002;SDS011;7597;53.590;10.020;2022-11-13T04:44:25;47.57;;;25.77;;
15002;SDS011;7597;53.590;10.020;2022-11-13T04:46:52;46.77;;;25.37;;
15002;SDS011;7597;53.590;10.020;2022-11-13T04:49:19;45.53;;;24.80;;
15002;SDS011;7597;53.590;10.020;2022-11-13T04:51:45;46.07;;;25.47;;
15002;SDS011;7597;53.590;10.020;2022-11-13T04:54:12;48.13;;;26.43;;
15002;SDS011;7597;53.590;10.020;2022-11-13T04:56:39;43.77;;;25.03;;
15002;SDS011;7597;53.590;10.020;2022-11-13T04:59:06;45.53;;;25.10;;
15002;SDS011;7597;53.590;10.020;2022-11-13T05:01:33;46.53;;;24.83;;
15002;SDS011;7597;53.590;10.020;2022-11-13T05:03:59;42.27;;;24.30;;
15002;SDS011;7597;53.590;10.020;2022-11-13T05:06:26;47.27;;;24.57;;
15002;SDS011;7597;53.590;10.020;2022-11-13T05:08:53;39.70;;;24.83;;
15002;SDS011;7597;53.590;10.020;2022-11-13T05:11:19;44.67;;;25.00;;
15002;SDS011;7597;53.590;10.020;2022-11-13T05:13:46;46.80;;;25.17;;
15002;SDS011;7597;53.590;10.020;2022-11-13T05:16:13;46.03;;;25.70;;
15002;SDS011;7597;53.590;10.020;2022-11-13T05:18:39;43.63;;;25.67;;
15002;SDS011;7597;53.590;10.020;2022-11-13T05:21:06;43.20;;;25.43;;
15002;SDS011;7597;53.590;10.020;2022-11-13T05:23:33;46.17;;;25.23;;
15002;SDS011;7597;53.590;10.020;2022-11-13T05:26:01;47.77;;;26.23;;
15002;SDS011;7597;53.590;10.020;2022-11-13T05:28:27;51.47;;;27.93;;
15002;SDS011;7597;53.590;10.020;2022-11-13T05:31:01;45.03;;;26.57;;
15002;SDS011;7597;53.590;10.020;2022-11-13T05:33:21;45.70;;;25.83;;
15002;SDS011;7597;53.590;10.020;2022-11-13T05:35:47;46.80;;;27.20;;
15002;SDS011;7597;53.590;10.020;2022-11-13T05:38:14;51.07;;;26.87;;
15002;SDS011;7597;53.590;10.020;2022-11-13T05:40:40;49.30;;;27.47;;
15002;SDS011;7597;53.590;10.020;2022-11-13T05:43:07;53.50;;;27.63;;
15002;SDS011;7597;53.590;10.020;2022-11-13T05:45:34;47.90;;;28.20;;
15002;SDS011;7597;53.590;10.020;2022-11-13T05:48:00;52.93;;;27.43;;
15002;SDS011;7597;53.590;10.020;2022-11-13T05:50:27;48.37;;;26.50;;
15002;SDS011;7597;53.590;10.020;2022-11-13T05:52:54;50.60;;;26.37;;
15002;SDS011;7597;53.590;10.020;2022-11-13T05:55:20;45.93;;;26.83;;
15002;SDS011;7597;53.590;10.020;2022-11-13T05:57:47;49.03;;;26.00;;
15002;SDS011;7597;53.590;10.020;2022-11-13T06:00:14;49.33;;;27.27;;
15002;SDS011;7597;53.590;10.020;2022-11-13T06:02:41;52.63;;;26.87;;
15002;SDS011;7597;53.590;10.020;2022-11-13T06:05:07;48.37;;;26.00;;
15002;SDS011;7597;53.590;10.020;2022-11-13T06:07:34;49.57;;;27.37;;
15002;SDS011;7597;53.590;10.020;2022-11-13T06:10:01;46.57;;;25.43;;
15002;SDS011;7597;53.590;10.020;2022-11-13T06:12:28;47.97;;;26.60;;
15002;SDS011;7597;53.590;10.020;2022-11-13T06:14:54;53.20;;;28.00;;
15002;SDS011;7597;53.590;10.020;2022-11-13T06:17:21;53.37;;;28.03;;
15002;SDS011;7597;53.590;10.020;2022-11-13T06:19:48;53.43;;;27.23;;
15002;SDS011;7597;53.590;10.020;2022-11-13T06:22:15;52.87;;;27.93;;
15002;SDS011;7597;53.590;10.020;2022-11-13T06:24:42;54.33;;;28.27;;
15002;SDS011;7597;53.590;10.020;2022-11-13T06:27:09;53.00;;;28.13;;
15002;SDS011;7597;53.590;10.020;2022-11-13T06:29:36;58.47;;;27.63;;
15002;SDS011;7597;53.590;10.020;2022-11-13T06:32:03;49.90;;;27.60;;
15002;SDS011;7597;53.590;10.020;2022-11-13T06:34:30;48.80;;;26.83;;
15002;SDS011;7597;53.590;10.020;2022-11-13T06:36:56;54.00;;;27.53;;
15002;SDS011;7597;53.590;10.020;2022-11-13T06:39:23;55.00;;;27.57;;
15002;SDS011;7597;53.590;10.020;2022-11-13T06:41:50;49.53;;;27.17;;
15002;SDS011;7597;53.590;10.020;2022-11-13T06:44:16;50.80;;;26.93;;
15002;SDS011;7597;53.590;10.020;2022-11-13T06:46:43;54.07;;;27.03;;
15002;SDS011;7597;53.590;10.020;2022-11-13T06:49:09;53.93;;;28.47;;
15002;SDS011;7597;53.590;10.020;2022-11-13T06:51:36;56.43;;;28.47;;
15002;SDS011;7597;53.590;10.020;2022-11-13T06:54:03;51.47;;;27.67;;
15002;SDS011;7597;53.590;10.020;2022-11-13T06:56:30;59.20;;;27.73;;
15002;SDS011;7597;53.590;10.020;2022-11-13T06:58:56;55.00;;;27.97;;
15002;SDS011;7597;53.590;10.020;2022-11-13T07:01:23;57.20;;;28.83;;
15002;SDS011;7597;53.590;10.020;2022-11-13T07:03:50;55.37;;;28.57;;
15002;SDS011;7597;53.590;10.020;2022-11-13T07:06:17;54.10;;;28.20;;
15002;SDS011;7597;53.590;10.020;2022-11-13T07:08:43;57.47;;;28.10;;
15002;SDS011;7597;53.590;10.020;2022-11-13T07:11:11;51.87;;;27.63;;
15002;SDS011;7597;53.590;10.020;2022-11-13T07:13:38;55.27;;;28.20;;
15002;SDS011;7597;53.590;10.020;2022-11-13T07:16:05;55.97;;;27.43;;
15002;SDS011;7597;53.590;10.020;2022-11-13T07:18:32;51.03;;;27.00;;
15002;SDS011;7597;53.590;10.020;2022-11-13T07:21:02;49.90;;;27.23;;
15002;SDS011;7597;53.590;10.020;2022-11-13T07:23:25;50.40;;;25.73;;
15002;SDS011;7597;53.590;10.020;2022-11-13T07:25:52;47.23;;;26.47;;
15002;SDS011;7597;53.590;10.020;2022-11-13T07:28:18;48.13;;;26.17;;
15002;SDS011;7597;53.590;10.020;2022-11-13T07:30:45;49.93;;;26.23;;
15002;SDS011;7597;53.590;10.020;2022-11-13T07:33:11;48.37;;;26.13;;
15002;SDS011;7597;53.590;10.020;2022-11-13T07:35:38;53.70;;;26.63;;
15002;SDS011;7597;53.590;10.020;2022-11-13T07:38:05;49.70;;;26.63;;
15002;SDS011;7597;53.590;10.020;2022-11-13T07:40:31;45.03;;;25.30;;
15002;SDS011;7597;53.590;10.020;2022-11-13T07:42:58;50.13;;;26.50;;
15002;SDS011;7597;53.590;10.020;2022-11-13T07:45:25;53.10;;;26.33;;
15002;SDS011;7597;53.590;10.020;2022-11-13T07:47:51;53.67;;;26.50;;
15002;SDS011;7597;53.590;10.020;2022-11-13T07:50:18;52.43;;;26.80;;
15002;SDS011;7597;53.590;10.020;2022-11-13T07:52:44;52.70;;;26.70;;
15002;SDS011;7597;53.590;10.020;2022-11-13T07:55:11;51.57;;;26.03;;
15002;SDS011;7597;53.590;10.020;2022-11-13T07:57:38;53.57;;;25.93;;
15002;SDS011;7597;53.590;10.020;2022-11-13T08:00:04;61.57;;;27.83;;
15002;SDS011;7597;53.590;10.020;2022-11-13T08:02:32;51.80;;;26.27;;
15002;SDS011;7597;53.590;10.020;2022-11-13T08:04:58;49.83;;;25.77;;
15002;SDS011;7597;53.590;10.020;2022-11-13T08:07:25;54.90;;;26.13;;
15002;SDS011;7597;53.590;10.020;2022-11-13T08:09:52;52.43;;;27.10;;
15002;SDS011;7597;53.590;10.020;2022-11-13T08:12:18;57.13;;;27.43;;
15002;SDS011;7597;53.590;10.020;2022-11-13T08:14:45;56.90;;;27.83;;
15002;SDS011;7597;53.590;10.020;2022-11-13T08:17:11;59.47;;;27.10;;
15002;SDS011;7597;53.590;10.020;2022-11-13T08:19:38;55.67;;;26.30;;
15002;SDS011;7597;53.590;10.020;2022-11-13T08:22:05;57.77;;;28.17;;
15002;SDS011;7597;53.590;10.020;2022-11-13T08:24:31;61.87;;;28.03;;
15002;SDS011;7597;53.590;10.020;2022-11-13T08:26:58;55.63;;;27.27;;
15002;SDS011;7597;53.590;10.020;2022-11-13T08:29:25;57.90;;;27.67;;
15002;SDS011;7597;53.590;10.020;2022-11-13T08:31:51;64.00;;;28.63;;
15002;SDS011;7597;53.590;10.020;2022-11-13T08:34:18;58.03;;;28.87;;
15002;SDS011;7597;53.590;10.020;2022-11-13T08:36:46;58.07;;;26.43;;
15002;SDS011;7597;53.590;10.020;2022-11-13T08:39:12;66.23;;;28.83;;
15002;SDS011;7597;53.590;10.020;2022-11-13T08:41:38;61.60;;;27.53;;
15002;SDS011;7597;53.590;10.020;2022-11-13T08:44:05;53.40;;;27.13;;
15002;SDS011;7597;53.590;10.020;2022-11-13T08:46:32;63.30;;;28.57;;
15002;SDS011;7597;53.590;10.020;2022-11-13T08:48:58;58.37;;;26.20;;
15002;SDS011;7597;53.590;10.020;2022-11-13T08:51:25;53.57;;;26.30;;
15002;SDS011;7597;53.590;10.020;2022-11-13T08:53:52;54.80;;;25.43;;
15002;SDS011;7597;53.590;10.020;2022-11-13T08:56:18;53.43;;;26.53;;
15002;SDS011;7597;53.590;10.020;2022-11-13T08:58:45;52.97;;;26.87;;
15002;SDS011;7597;53.590;10.020;2022-11-13T09:01:11;51.90;;;26.30;;
15002;SDS011;7597;53.590;10.020;2022-11-13T09:03:39;50.27;;;25.53;;
15002;SDS011;7597;53.590;10.020;2022-11-13T09:06:06;52.77;;;24.33;;
15002;SDS011;7597;53.590;10.020;2022-11-13T09:08:33;54.77;;;26.53;;
15002;SDS011;7597;53.590;10.020;2022-11-13T09:11:02;50.10;;;25.63;;
15002;SDS011;7597;53.590;10.020;2022-11-13T09:13:28;49.43;;;25.00;;
15002;SDS011;7597;53.590;10.020;2022-11-13T09:15:56;48.53;;;24.17;;
15002;SDS011;7597;53.590;10.020;2022-11-13T09:18:21;50.27;;;24.90;;
15002;SDS011;7597;53.590;10.020;2022-11-13T09:20:48;49.20;;;25.47;;
15002;SDS011;7597;53.590;10.020;2022-11-13T09:23:15;47.07;;;24.33;;
15002;SDS011;7597;53.590;10.020;2022-11-13T09:25:42;50.50;;;24.37;;
15002;SDS011;7597;53.590;10.020;2022-11-13T09:28:09;50.17;;;24.93;;
15002;SDS011;7597;53.590;10.020;2022-11-13T09:30:36;52.07;;;26.30;;
15002;SDS011;7597;53.590;10.020;2022-11-13T09:33:02;49.87;;;24.47;;
15002;SDS011;7597;53.590;10.020;2022-11-13T09:35:29;50.27;;;23.40;;
15002;SDS011;7597;53.590;10.020;2022-11-13T09:38:00;45.43;;;23.83;;
15002;SDS011;7597;53.590;10.020;2022-11-13T09:40:28;40.47;;;21.77;;
15002;SDS011;7597;53.590;10.020;2022-11-13T09:42:54;44.67;;;23.03;;
15002;SDS011;7597;53.590;10.020;2022-11-13T09:45:21;44.23;;;23.67;;
15002;SDS011;7597;53.590;10.020;2022-11-13T09:47:48;45.80;;;22.23;;
15002;SDS011;7597;53.590;10.020;2022-11-13T09:50:16;43.77;;;23.73;;
15002;SDS011;7597;53.590;10.020;2022-11-13T09:52:44;39.87;;;21.57;;
15002;SDS011;7597;53.590;10.020;2022-11-13T09:55:11;39.17;;;21.43;;
15002;SDS011;7597;53.590;10.020;2022-11-13T09:57:41;42.20;;;23.37;;
15002;SDS011;7597;53.590;10.020;2022-11-13T10:00:10;38.13;;;21.53;;
15002;SDS011;7597;53.590;10.020;2022-11-13T10:03:17;38.47;;;22.00;;
15002;SDS011;7597;53.590;10.020;2022-11-13T10:05:35;35.67;;;20.77;;
15002;SDS011;7597;53.590;10.020;2022-11-13T10:10:51;38.23;;;21.23;;
15002;SDS011;7597;53.590;10.020;2022-11-13T10:13:37;38.53;;;21.80;;
15002;SDS011;7597;53.590;10.020;2022-11-13T10:16:05;33.97;;;19.97;;
15002;SDS011;7597;53.590;10.020;2022-11-13T10:18:30;36.40;;;21.77;;
15002;SDS011;7597;53.590;10.020;2022-11-13T10:20:57;34.63;;;20.17;;
15002;SDS011;7597;53.590;10.020;2022-11-13T10:23:27;32.93;;;21.07;;
15002;SDS011;7597;53.590;10.020;2022-11-13T10:25:54;33.30;;;20.97;;
15002;SDS011;7597;53.590;10.020;2022-11-13T10:28:21;34.40;;;19.87;;
15002;SDS011;7597;53.590;10.020;2022-11-13T10:30:48;30.07;;;19.80;;
15002;SDS011;7597;53.590;10.020;2022-11-13T10:33:17;33.37;;;20.57;;
15002;SDS011;7597;53.590;10.020;2022-11-13T10:35:45;34.67;;;20.40;;
15002;SDS011;7597;53.590;10.020;2022-11-13T10:38:15;33.37;;;21.07;;
15002;SDS011;7597;53.590;10.020;2022-11-13T10:40:42;35.03;;;20.67;;
15002;SDS011;7597;53.590;10.020;2022-11-13T10:43:13;36.03;;;20.83;;
15002;SDS011;7597;53.590;10.020;2022-11-13T10:45:41;35.83;;;19.70;;
15002;SDS011;7597;53.590;10.020;2022-11-13T10:50:50;36.07;;;19.60;;
15002;SDS011;7597;53.590;10.020;2022-11-13T10:53:13;36.03;;;21.63;;
15002;SDS011;7597;53.590;10.020;2022-11-13T10:55:39;35.13;;;20.03;;
15002;SDS011;7597;53.590;10.020;2022-11-13T10:58:12;35.20;;;21.23;;
15002;SDS011;7597;53.590;10.020;2022-11-13T11:00:38;35.20;;;22.23;;
15002;SDS011;7597;53.590;10.020;2022-11-13T11:03:07;34.70;;;20.73;;
15002;SDS011;7597;53.590;10.020;2022-11-13T11:05:33;34.47;;;20.60;;
15002;SDS011;7597;53.590;10.020;2022-11-13T11:08:00;32.23;;;19.97;;
15002;SDS011;7597;53.590;10.020;2022-11-13T11:10:30;37.73;;;21.53;;
15002;SDS011;7597;53.590;10.020;2022-11-13T11:13:01;37.03;;;20.43;;
15002;SDS011;7597;53.590;10.020;2022-11-13T11:15:43;39.70;;;22.53;;
15002;SDS011;7597;53.590;10.020;2022-11-13T11:18:43;36.23;;;21.60;;
15002;SDS011;7597;53.590;10.020;2022-11-13T11:20:54;33.37;;;20.33;;
15002;SDS011;7597;53.590;10.020;2022-11-13T11:23:26;38.87;;;21.67;;
15002;SDS011;7597;53.590;10.020;2022-11-13T11:25:54;42.17;;;22.60;;
15002;SDS011;7597;53.590;10.020;2022-11-13T11:28:24;39.47;;;21.70;;
15002;SDS011;7597;53.590;10.020;2022-11-13T11:30:52;39.72;;;20.98;;
15002;SDS011;7597;53.590;10.020;2022-11-13T11:33:24;38.40;;;21.30;;
15002;SDS011;7597;53.590;10.020;2022-11-13T11:35:49;38.47;;;21.70;;
15002;SDS011;7597;53.590;10.020;2022-11-13T11:38:19;35.10;;;19.73;;
15002;SDS011;7597;53.590;10.020;2022-11-13T11:40:45;35.97;;;20.23;;
15002;SDS011;7597;53.590;10.020;2022-11-13T11:43:16;38.87;;;20.10;;
15002;SDS011;7597;53.590;10.020;2022-11-13T11:45:43;33.10;;;20.70;;
15002;SDS011;7597;53.590;10.020;2022-11-13T11:48:17;34.10;;;20.63;;
15002;SDS011;7597;53.590;10.020;2022-11-13T11:50:46;31.83;;;18.95;;
15002;SDS011;7597;53.590;10.020;2022-11-13T11:53:15;30.30;;;17.23;;
15002;SDS011;7597;53.590;10.020;2022-11-13T11:56:14;30.12;;;18.62;;
15002;SDS011;7597;53.590;10.020;2022-11-13T12:01:47;30.58;;;18.20;;
15002;SDS011;7597;53.590;10.020;2022-11-13T12:04:18;27.23;;;17.43;;
15002;SDS011;7597;53.590;10.020;2022-11-13T12:06:53;26.97;;;17.53;;
15002;SDS011;7597;53.590;10.020;2022-11-13T12:09:19;25.80;;;16.93;;
15002;SDS011;7597;53.590;10.020;2022-11-13T12:11:49;24.20;;;15.82;;
15002;SDS011;7597;53.590;10.020;2022-11-13T12:14:15;24.12;;;15.15;;
15002;SDS011;7597;53.590;10.020;2022-11-13T12:18:04;25.45;;;16.87;;
15002;SDS011;7597;53.590;10.020;2022-11-13T12:19:49;21.70;;;15.77;;
15002;SDS011;7597;53.590;10.020;2022-11-13T12:22:25;19.90;;;15.45;;
15002;SDS011;7597;53.590;10.020;2022-11-13T12:24:55;19.75;;;14.35;;
15002;SDS011;7597;53.590;10.020;2022-11-13T12:27:21;23.10;;;14.40;;
15002;SDS011;7597;53.590;10.020;2022-11-13T12:30:16;19.97;;;14.83;;
15002;SDS011;7597;53.590;10.020;2022-11-13T12:32:46;20.40;;;14.07;;
15002;SDS011;7597;53.590;10.020;2022-11-13T12:35:23;19.67;;;13.50;;
15002;SDS011;7597;53.590;10.020;2022-11-13T12:43:34;19.93;;;13.53;;
15002;SDS011;7597;53.590;10.020;2022-11-13T12:46:06;19.30;;;13.13;;
15002;SDS011;7597;53.590;10.020;2022-11-13T12:48:34;19.77;;;12.68;;
15002;SDS011;7597;53.590;10.020;2022-11-13T12:51:06;20.37;;;14.00;;
15002;SDS011;7597;53.590;10.020;2022-11-13T12:56:12;16.80;;;13.40;;
15002;SDS011;7597;53.590;10.020;2022-11-13T12:58:35;15.63;;;11.80;;
15002;SDS011;7597;53.590;10.020;2022-11-13T13:01:04;17.30;;;12.30;;
15002;SDS011;7597;53.590;10.020;2022-11-13T13:06:05;15.85;;;12.50;;
15002;SDS011;7597;53.590;10.020;2022-11-13T13:08:33;17.33;;;12.57;;
15002;SDS011;7597;53.590;10.020;2022-11-13T13:11:02;16.70;;;12.52;;
15002;SDS011;7597;53.590;10.020;2022-11-13T13:13:55;18.60;;;13.57;;
15002;SDS011;7597;53.590;10.020;2022-11-13T13:16:27;17.30;;;12.60;;
15002;SDS011;7597;53.590;10.020;2022-11-13T13:19:04;17.83;;;12.95;;
15002;SDS011;7597;53.590;10.020;2022-11-13T13:21:19;19.67;;;13.77;;
15002;SDS011;7597;53.590;10.020;2022-11-13T13:23:48;15.63;;;12.07;;
15002;SDS011;7597;53.590;10.020;2022-11-13T13:26:18;19.30;;;12.63;;
15002;SDS011;7597;53.590;10.020;2022-11-13T13:28:47;14.50;;;12.10;;
15002;SDS011;7597;53.590;10.020;2022-11-13T13:31:15;18.42;;;13.20;;
15002;SDS011;7597;53.590;10.020;2022-11-13T13:33:47;17.15;;;12.32;;
15002;SDS011;7597;53.590;10.020;2022-11-13T13:36:14;17.15;;;13.10;;
15002;SDS011;7597;53.590;10.020;2022-11-13T13:38:52;16.90;;;12.88;;
15002;SDS011;7597;53.590;10.020;2022-11-13T13:41:22;16.65;;;12.37;;
15002;SDS011;7597;53.590;10.020;2022-11-13T13:43:50;16.50;;;12.32;;
15002;SDS011;7597;53.590;10.020;2022-11-13T13:46:32;16.87;;;12.57;;
15002;SDS011;7597;53.590;10.020;2022-11-13T13:49:01;18.03;;;12.97;;
15002;SDS011;7597;53.590;10.020;2022-11-13T13:51:28;17.40;;;12.45;;
15002;SDS011;7597;53.590;10.020;2022-11-13T13:53:54;18.75;;;12.63;;
15002;SDS011;7597;53.590;10.020;2022-11-13T13:56:21;19.23;;;12.43;;
15002;SDS011;7597;53.590;10.020;2022-11-13T13:58:47;18.15;;;13.62;;
15002;SDS011;7597;53.590;10.020;2022-11-13T14:01:23;18.67;;;13.27;;
15002;SDS011;7597;53.590;10.020;2022-11-13T14:03:41;18.55;;;13.48;;
15002;SDS011;7597;53.590;10.020;2022-11-13T14:06:09;19.23;;;14.52;;
15002;SDS011;7597;53.590;10.020;2022-11-13T14:08:36;18.92;;;14.10;;
15002;SDS011;7597;53.590;10.020;2022-11-13T14:13:43;18.92;;;14.90;;
15002;SDS011;7597;53.590;10.020;2022-11-13T14:16:10;21.23;;;14.98;;
15002;SDS011;7597;53.590;10.020;2022-11-13T14:18:37;19.98;;;14.98;;
15002;SDS011;7597;53.590;10.020;2022-11-13T14:21:07;21.92;;;14.38;;
15002;SDS011;7597;53.590;10.020;2022-11-13T14:23:34;20.62;;;15.43;;
15002;SDS011;7597;53.590;10.020;2022-11-13T14:25:59;24.05;;;17.30;;
15002;SDS011;7597;53.590;10.020;2022-11-13T14:28:26;23.80;;;16.70;;
15002;SDS011;7597;53.590;10.020;2022-11-13T14:30:54;26.00;;;16.83;;
15002;SDS011;7597;53.590;10.020;2022-11-13T14:33:30;26.25;;;17.70;;
15002;SDS011;7597;53.590;10.020;2022-11-13T14:35:55;23.35;;;16.60;;
15002;SDS011;7597;53.590;10.020;2022-11-13T14:38:23;28.25;;;18.23;;
15002;SDS011;7597;53.590;10.020;2022-11-13T14:40:48;27.45;;;18.92;;
15002;SDS011;7597;53.590;10.020;2022-11-13T14:43:18;27.60;;;19.20;;
15002;SDS011;7597;53.590;10.020;2022-11-13T14:45:50;27.40;;;18.73;;
15002;SDS011;7597;53.590;10.020;2022-11-13T14:48:17;28.38;;;19.05;;